sensor_id;sensor_type;location;lat;lon;timestamp;P1;durP1;ratioP1;P2;durP2;ratioP2
18748;SDS011;9503;53.560;10.246;2024-02-26T00:01:01;11.20;;;6.50;;
18748;SDS011;9503;53.560;10.246;2024-02-26T00:03:28;10.83;;;6.37;;
18748;SDS011;9503;53.560;10.246;2024-02-26T00:05:57;8.43;;;5.73;;
18748;SDS011;9503;53.560;10.246;2024-02-26T00:08:24;11.93;;;5.80;;
18748;SDS011;9503;53.560;10.246;2024-02-26T00:10:50;12.27;;;6.13;;
18748;SDS011;9503;53.560;10.246;2024-02-26T00:13:17;11.10;;;5.97;;
18748;SDS011;9503;53.560;10.246;2024-02-26T00:15:45;8.43;;;5.10;;
18748;SDS011;9503;53.560;10.246;2024-02-26T00:18:12;8.43;;;5.47;;
18748;SDS011;9503;53.560;10.246;2024-02-26T00:20:40;8.10;;;5.10;;
18748;SDS011;9503;53.560;10.246;2024-02-26T00:23:08;8.40;;;5.30;;
18748;SDS011;9503;53.560;10.246;2024-02-26T00:25:34;8.77;;;5.27;;
18748;SDS011;9503;53.560;10.246;2024-02-26T00:28:01;9.23;;;5.13;;
18748;SDS011;9503;53.560;10.246;2024-02-26T00:30:28;7.80;;;5.47;;
18748;SDS011;9503;53.560;10.246;2024-02-26T00:32:55;7.43;;;4.87;;
18748;SDS011;9503;53.560;10.246;2024-02-26T00:35:21;10.63;;;5.67;;
18748;SDS011;9503;53.560;10.246;2024-02-26T00:37:52;8.37;;;5.50;;
18748;SDS011;9503;53.560;10.246;2024-02-26T00:40:18;10.27;;;5.77;;
18748;SDS011;9503;53.560;10.246;2024-02-26T00:42:45;12.57;;;6.63;;
18748;SDS011;9503;53.560;10.246;2024-02-26T00:45:12;10.63;;;6.37;;
18748;SDS011;9503;53.560;10.246;2024-02-26T00:47:39;12.03;;;6.80;;
18748;SDS011;9503;53.560;10.246;2024-02-26T00:50:06;10.23;;;5.83;;
18748;SDS011;9503;53.560;10.246;2024-02-26T00:52:34;11.57;;;6.70;;
18748;SDS011;9503;53.560;10.246;2024-02-26T00:55:02;10.23;;;5.83;;
18748;SDS011;9503;53.560;10.246;2024-02-26T00:57:29;14.10;;;5.93;;
18748;SDS011;9503;53.560;10.246;2024-02-26T00:59:56;14.00;;;6.60;;
18748;SDS011;9503;53.560;10.246;2024-02-26T01:02:24;12.17;;;6.43;;
18748;SDS011;9503;53.560;10.246;2024-02-26T01:04:50;12.73;;;7.63;;
18748;SDS011;9503;53.560;10.246;2024-02-26T01:07:17;12.53;;;7.07;;
18748;SDS011;9503;53.560;10.246;2024-02-26T01:09:44;13.90;;;7.10;;
18748;SDS011;9503;53.560;10.246;2024-02-26T01:12:12;9.47;;;5.90;;
18748;SDS011;9503;53.560;10.246;2024-02-26T01:14:38;11.53;;;6.20;;
18748;SDS011;9503;53.560;10.246;2024-02-26T01:17:05;11.60;;;6.30;;
18748;SDS011;9503;53.560;10.246;2024-02-26T01:19:31;13.43;;;7.37;;
18748;SDS011;9503;53.560;10.246;2024-02-26T01:21:58;13.07;;;7.73;;
18748;SDS011;9503;53.560;10.246;2024-02-26T01:24:25;9.70;;;6.50;;
18748;SDS011;9503;53.560;10.246;2024-02-26T01:26:52;11.73;;;6.13;;
18748;SDS011;9503;53.560;10.246;2024-02-26T01:29:20;9.97;;;5.97;;
18748;SDS011;9503;53.560;10.246;2024-02-26T01:31:46;12.50;;;6.47;;
18748;SDS011;9503;53.560;10.246;2024-02-26T01:34:13;12.10;;;6.50;;
18748;SDS011;9503;53.560;10.246;2024-02-26T01:36:40;11.73;;;6.40;;
18748;SDS011;9503;53.560;10.246;2024-02-26T01:39:06;10.20;;;5.63;;
18748;SDS011;9503;53.560;10.246;2024-02-26T01:41:35;10.23;;;6.00;;
18748;SDS011;9503;53.560;10.246;2024-02-26T01:44:02;11.80;;;6.93;;
18748;SDS011;9503;53.560;10.246;2024-02-26T01:46:30;10.47;;;6.20;;
18748;SDS011;9503;53.560;10.246;2024-02-26T01:48:59;12.00;;;7.00;;
18748;SDS011;9503;53.560;10.246;2024-02-26T01:51:27;11.20;;;6.60;;
18748;SDS011;9503;53.560;10.246;2024-02-26T01:53:54;11.67;;;5.77;;
18748;SDS011;9503;53.560;10.246;2024-02-26T01:56:21;8.80;;;5.47;;
18748;SDS011;9503;53.560;10.246;2024-02-26T01:58:53;11.93;;;6.30;;
18748;SDS011;9503;53.560;10.246;2024-02-26T02:01:20;8.37;;;5.43;;
18748;SDS011;9503;53.560;10.246;2024-02-26T02:03:52;9.47;;;5.60;;
18748;SDS011;9503;53.560;10.246;2024-02-26T02:06:19;9.00;;;5.40;;
18748;SDS011;9503;53.560;10.246;2024-02-26T02:08:46;8.80;;;5.40;;
18748;SDS011;9503;53.560;10.246;2024-02-26T02:11:14;9.00;;;5.53;;
18748;SDS011;9503;53.560;10.246;2024-02-26T02:13:40;9.53;;;5.37;;
18748;SDS011;9503;53.560;10.246;2024-02-26T02:16:07;9.60;;;5.33;;
18748;SDS011;9503;53.560;10.246;2024-02-26T02:18:34;8.83;;;5.63;;
18748;SDS011;9503;53.560;10.246;2024-02-26T02:21:04;9.10;;;5.70;;
18748;SDS011;9503;53.560;10.246;2024-02-26T02:23:31;10.03;;;5.67;;
18748;SDS011;9503;53.560;10.246;2024-02-26T02:25:57;9.20;;;5.40;;
18748;SDS011;9503;53.560;10.246;2024-02-26T02:28:25;8.70;;;5.33;;
18748;SDS011;9503;53.560;10.246;2024-02-26T02:30:53;8.83;;;5.30;;
18748;SDS011;9503;53.560;10.246;2024-02-26T02:33:20;8.73;;;5.57;;
18748;SDS011;9503;53.560;10.246;2024-02-26T02:35:47;10.00;;;5.90;;
18748;SDS011;9503;53.560;10.246;2024-02-26T02:38:17;8.63;;;5.53;;
18748;SDS011;9503;53.560;10.246;2024-02-26T02:40:43;6.83;;;4.97;;
18748;SDS011;9503;53.560;10.246;2024-02-26T02:43:10;8.83;;;5.97;;
18748;SDS011;9503;53.560;10.246;2024-02-26T02:45:37;8.50;;;5.30;;
18748;SDS011;9503;53.560;10.246;2024-02-26T02:48:04;14.67;;;5.93;;
18748;SDS011;9503;53.560;10.246;2024-02-26T02:50:31;9.70;;;5.43;;
18748;SDS011;9503;53.560;10.246;2024-02-26T02:52:57;10.07;;;6.27;;
18748;SDS011;9503;53.560;10.246;2024-02-26T02:55:25;8.53;;;5.67;;
18748;SDS011;9503;53.560;10.246;2024-02-26T02:57:52;10.07;;;6.20;;
18748;SDS011;9503;53.560;10.246;2024-02-26T03:00:18;10.20;;;5.83;;
18748;SDS011;9503;53.560;10.246;2024-02-26T03:02:47;9.93;;;6.27;;
18748;SDS011;9503;53.560;10.246;2024-02-26T03:05:14;8.50;;;5.60;;
18748;SDS011;9503;53.560;10.246;2024-02-26T03:07:41;10.07;;;6.47;;
18748;SDS011;9503;53.560;10.246;2024-02-26T03:10:07;9.40;;;6.57;;
18748;SDS011;9503;53.560;10.246;2024-02-26T03:12:36;10.63;;;5.87;;
18748;SDS011;9503;53.560;10.246;2024-02-26T03:15:02;9.77;;;6.03;;
18748;SDS011;9503;53.560;10.246;2024-02-26T03:17:29;9.13;;;5.60;;
18748;SDS011;9503;53.560;10.246;2024-02-26T03:19:56;10.30;;;6.60;;
18748;SDS011;9503;53.560;10.246;2024-02-26T03:22:23;9.50;;;5.93;;
18748;SDS011;9503;53.560;10.246;2024-02-26T03:24:49;9.93;;;5.90;;
18748;SDS011;9503;53.560;10.246;2024-02-26T03:27:16;9.40;;;6.00;;
18748;SDS011;9503;53.560;10.246;2024-02-26T03:29:44;11.87;;;6.60;;
18748;SDS011;9503;53.560;10.246;2024-02-26T03:32:10;9.23;;;5.67;;
18748;SDS011;9503;53.560;10.246;2024-02-26T03:34:37;8.83;;;5.47;;
18748;SDS011;9503;53.560;10.246;2024-02-26T03:37:04;9.20;;;6.17;;
18748;SDS011;9503;53.560;10.246;2024-02-26T03:39:30;11.33;;;6.13;;
18748;SDS011;9503;53.560;10.246;2024-02-26T03:41:57;8.77;;;5.30;;
18748;SDS011;9503;53.560;10.246;2024-02-26T03:44:24;7.87;;;5.30;;
18748;SDS011;9503;53.560;10.246;2024-02-26T03:46:52;9.93;;;6.50;;
18748;SDS011;9503;53.560;10.246;2024-02-26T03:49:18;11.67;;;6.90;;
18748;SDS011;9503;53.560;10.246;2024-02-26T03:51:45;11.17;;;6.57;;
18748;SDS011;9503;53.560;10.246;2024-02-26T03:54:12;9.87;;;6.10;;
18748;SDS011;9503;53.560;10.246;2024-02-26T03:56:39;12.73;;;7.10;;
18748;SDS011;9503;53.560;10.246;2024-02-26T03:59:05;9.90;;;6.17;;
18748;SDS011;9503;53.560;10.246;2024-02-26T04:01:32;9.20;;;5.87;;
18748;SDS011;9503;53.560;10.246;2024-02-26T04:04:00;12.10;;;6.20;;
18748;SDS011;9503;53.560;10.246;2024-02-26T04:06:27;13.07;;;6.90;;
18748;SDS011;9503;53.560;10.246;2024-02-26T04:08:53;15.33;;;7.13;;
18748;SDS011;9503;53.560;10.246;2024-02-26T04:11:20;14.97;;;7.93;;
18748;SDS011;9503;53.560;10.246;2024-02-26T04:13:47;41.17;;;15.77;;
18748;SDS011;9503;53.560;10.246;2024-02-26T04:16:14;23.50;;;10.00;;
18748;SDS011;9503;53.560;10.246;2024-02-26T04:18:41;22.73;;;9.83;;
18748;SDS011;9503;53.560;10.246;2024-02-26T04:21:09;14.00;;;7.30;;
18748;SDS011;9503;53.560;10.246;2024-02-26T04:23:36;14.93;;;7.23;;
18748;SDS011;9503;53.560;10.246;2024-02-26T04:26:03;11.50;;;6.63;;
18748;SDS011;9503;53.560;10.246;2024-02-26T04:28:30;11.50;;;6.30;;
18748;SDS011;9503;53.560;10.246;2024-02-26T04:30:56;10.30;;;6.17;;
18748;SDS011;9503;53.560;10.246;2024-02-26T04:33:23;11.20;;;6.23;;
18748;SDS011;9503;53.560;10.246;2024-02-26T04:35:49;8.73;;;6.33;;
18748;SDS011;9503;53.560;10.246;2024-02-26T04:38:17;11.33;;;6.17;;
18748;SDS011;9503;53.560;10.246;2024-02-26T04:40:44;9.83;;;6.13;;
18748;SDS011;9503;53.560;10.246;2024-02-26T04:43:11;10.53;;;5.43;;
18748;SDS011;9503;53.560;10.246;2024-02-26T04:45:39;9.00;;;5.70;;
18748;SDS011;9503;53.560;10.246;2024-02-26T04:48:06;13.07;;;6.33;;
18748;SDS011;9503;53.560;10.246;2024-02-26T04:50:33;9.60;;;5.90;;
18748;SDS011;9503;53.560;10.246;2024-02-26T04:53:00;9.93;;;5.47;;
18748;SDS011;9503;53.560;10.246;2024-02-26T04:55:28;7.80;;;5.37;;
18748;SDS011;9503;53.560;10.246;2024-02-26T04:57:54;8.50;;;5.53;;
18748;SDS011;9503;53.560;10.246;2024-02-26T05:00:21;10.37;;;6.20;;
18748;SDS011;9503;53.560;10.246;2024-02-26T05:02:47;9.80;;;6.00;;
18748;SDS011;9503;53.560;10.246;2024-02-26T05:05:14;10.70;;;6.00;;
18748;SDS011;9503;53.560;10.246;2024-02-26T05:07:40;8.43;;;5.57;;
18748;SDS011;9503;53.560;10.246;2024-02-26T05:10:08;10.70;;;5.70;;
18748;SDS011;9503;53.560;10.246;2024-02-26T05:12:36;10.50;;;6.40;;
18748;SDS011;9503;53.560;10.246;2024-02-26T05:15:04;9.80;;;5.73;;
18748;SDS011;9503;53.560;10.246;2024-02-26T05:17:31;8.97;;;5.93;;
18748;SDS011;9503;53.560;10.246;2024-02-26T05:19:57;12.10;;;6.17;;
18748;SDS011;9503;53.560;10.246;2024-02-26T05:22:24;10.63;;;6.63;;
18748;SDS011;9503;53.560;10.246;2024-02-26T05:24:51;13.10;;;6.83;;
18748;SDS011;9503;53.560;10.246;2024-02-26T05:27:17;13.43;;;6.37;;
18748;SDS011;9503;53.560;10.246;2024-02-26T05:29:45;11.20;;;6.90;;
18748;SDS011;9503;53.560;10.246;2024-02-26T05:32:12;13.77;;;6.43;;
18748;SDS011;9503;53.560;10.246;2024-02-26T05:34:38;10.93;;;6.87;;
18748;SDS011;9503;53.560;10.246;2024-02-26T05:37:06;13.30;;;6.90;;
18748;SDS011;9503;53.560;10.246;2024-02-26T05:39:33;11.47;;;7.43;;
18748;SDS011;9503;53.560;10.246;2024-02-26T05:42:00;15.63;;;7.13;;
18748;SDS011;9503;53.560;10.246;2024-02-26T05:44:26;17.60;;;7.40;;
18748;SDS011;9503;53.560;10.246;2024-02-26T05:46:54;12.37;;;7.27;;
18748;SDS011;9503;53.560;10.246;2024-02-26T05:49:21;13.27;;;6.60;;
18748;SDS011;9503;53.560;10.246;2024-02-26T05:51:48;11.60;;;6.53;;
18748;SDS011;9503;53.560;10.246;2024-02-26T05:54:14;11.47;;;6.77;;
18748;SDS011;9503;53.560;10.246;2024-02-26T05:56:41;11.23;;;6.60;;
18748;SDS011;9503;53.560;10.246;2024-02-26T05:59:08;14.70;;;6.80;;
18748;SDS011;9503;53.560;10.246;2024-02-26T06:01:34;11.97;;;7.13;;
18748;SDS011;9503;53.560;10.246;2024-02-26T06:04:02;10.27;;;6.47;;
18748;SDS011;9503;53.560;10.246;2024-02-26T06:06:29;13.33;;;6.93;;
18748;SDS011;9503;53.560;10.246;2024-02-26T06:08:55;11.80;;;6.60;;
18748;SDS011;9503;53.560;10.246;2024-02-26T06:11:22;13.63;;;7.70;;
18748;SDS011;9503;53.560;10.246;2024-02-26T06:13:49;14.07;;;7.50;;
18748;SDS011;9503;53.560;10.246;2024-02-26T06:16:15;14.37;;;7.60;;
18748;SDS011;9503;53.560;10.246;2024-02-26T06:18:42;13.47;;;7.83;;
18748;SDS011;9503;53.560;10.246;2024-02-26T06:21:10;14.13;;;7.77;;
18748;SDS011;9503;53.560;10.246;2024-02-26T06:23:37;14.73;;;7.93;;
18748;SDS011;9503;53.560;10.246;2024-02-26T06:26:04;15.57;;;7.83;;
18748;SDS011;9503;53.560;10.246;2024-02-26T06:28:30;19.17;;;8.63;;
18748;SDS011;9503;53.560;10.246;2024-02-26T06:30:58;16.03;;;8.73;;
18748;SDS011;9503;53.560;10.246;2024-02-26T06:33:25;17.03;;;8.70;;
18748;SDS011;9503;53.560;10.246;2024-02-26T06:35:52;16.87;;;8.30;;
18748;SDS011;9503;53.560;10.246;2024-02-26T06:38:20;17.23;;;8.50;;
18748;SDS011;9503;53.560;10.246;2024-02-26T06:40:46;16.13;;;9.03;;
18748;SDS011;9503;53.560;10.246;2024-02-26T06:43:13;20.43;;;10.40;;
18748;SDS011;9503;53.560;10.246;2024-02-26T06:45:39;15.93;;;8.97;;
18748;SDS011;9503;53.560;10.246;2024-02-26T06:48:06;18.80;;;9.80;;
18748;SDS011;9503;53.560;10.246;2024-02-26T06:50:33;21.10;;;10.17;;
18748;SDS011;9503;53.560;10.246;2024-02-26T06:53:00;21.37;;;9.60;;
18748;SDS011;9503;53.560;10.246;2024-02-26T06:55:28;18.47;;;9.93;;
18748;SDS011;9503;53.560;10.246;2024-02-26T06:57:54;18.23;;;9.37;;
18748;SDS011;9503;53.560;10.246;2024-02-26T07:00:20;19.77;;;10.73;;
18748;SDS011;9503;53.560;10.246;2024-02-26T07:02:47;20.67;;;10.27;;
18748;SDS011;9503;53.560;10.246;2024-02-26T07:05:13;19.77;;;9.93;;
18748;SDS011;9503;53.560;10.246;2024-02-26T07:07:40;18.03;;;9.97;;
18748;SDS011;9503;53.560;10.246;2024-02-26T07:10:07;17.77;;;9.87;;
18748;SDS011;9503;53.560;10.246;2024-02-26T07:12:36;17.03;;;9.67;;
18748;SDS011;9503;53.560;10.246;2024-02-26T07:15:03;17.03;;;9.43;;
18748;SDS011;9503;53.560;10.246;2024-02-26T07:17:30;21.03;;;10.10;;
18748;SDS011;9503;53.560;10.246;2024-02-26T07:19:56;16.00;;;9.70;;
18748;SDS011;9503;53.560;10.246;2024-02-26T07:22:23;20.77;;;9.97;;
18748;SDS011;9503;53.560;10.246;2024-02-26T07:24:50;21.03;;;9.60;;
18748;SDS011;9503;53.560;10.246;2024-02-26T07:27:17;19.67;;;9.87;;
18748;SDS011;9503;53.560;10.246;2024-02-26T07:29:47;18.20;;;9.53;;
18748;SDS011;9503;53.560;10.246;2024-02-26T07:32:14;20.97;;;8.70;;
18748;SDS011;9503;53.560;10.246;2024-02-26T07:34:40;17.87;;;9.40;;
18748;SDS011;9503;53.560;10.246;2024-02-26T07:37:09;15.20;;;8.43;;
18748;SDS011;9503;53.560;10.246;2024-02-26T07:39:36;17.13;;;8.77;;
18748;SDS011;9503;53.560;10.246;2024-02-26T07:42:03;17.80;;;8.47;;
18748;SDS011;9503;53.560;10.246;2024-02-26T07:44:30;15.90;;;8.97;;
18748;SDS011;9503;53.560;10.246;2024-02-26T07:46:58;16.43;;;8.47;;
18748;SDS011;9503;53.560;10.246;2024-02-26T07:49:24;17.07;;;9.53;;
18748;SDS011;9503;53.560;10.246;2024-02-26T07:51:52;17.30;;;9.07;;
18748;SDS011;9503;53.560;10.246;2024-02-26T07:54:18;16.00;;;9.03;;
18748;SDS011;9503;53.560;10.246;2024-02-26T07:56:45;17.27;;;9.50;;
18748;SDS011;9503;53.560;10.246;2024-02-26T07:59:11;16.47;;;9.23;;
18748;SDS011;9503;53.560;10.246;2024-02-26T08:01:38;15.73;;;9.73;;
18748;SDS011;9503;53.560;10.246;2024-02-26T08:04:07;16.50;;;9.43;;
18748;SDS011;9503;53.560;10.246;2024-02-26T08:06:34;14.53;;;8.83;;
18748;SDS011;9503;53.560;10.246;2024-02-26T08:09:01;15.53;;;9.23;;
18748;SDS011;9503;53.560;10.246;2024-02-26T08:11:28;17.60;;;9.67;;
18748;SDS011;9503;53.560;10.246;2024-02-26T08:13:55;15.30;;;9.40;;
18748;SDS011;9503;53.560;10.246;2024-02-26T08:16:22;17.53;;;10.13;;
18748;SDS011;9503;53.560;10.246;2024-02-26T08:18:48;19.97;;;9.67;;
18748;SDS011;9503;53.560;10.246;2024-02-26T08:21:16;16.73;;;9.17;;
18748;SDS011;9503;53.560;10.246;2024-02-26T08:23:43;20.50;;;10.93;;
18748;SDS011;9503;53.560;10.246;2024-02-26T08:26:10;17.73;;;10.27;;
18748;SDS011;9503;53.560;10.246;2024-02-26T08:28:37;17.10;;;9.80;;
18748;SDS011;9503;53.560;10.246;2024-02-26T08:31:03;19.27;;;10.47;;
18748;SDS011;9503;53.560;10.246;2024-02-26T08:33:30;18.43;;;10.50;;
18748;SDS011;9503;53.560;10.246;2024-02-26T08:35:59;16.03;;;9.43;;
18748;SDS011;9503;53.560;10.246;2024-02-26T08:38:27;19.53;;;10.50;;
18748;SDS011;9503;53.560;10.246;2024-02-26T08:40:53;18.80;;;9.93;;
18748;SDS011;9503;53.560;10.246;2024-02-26T08:43:20;17.57;;;9.63;;
18748;SDS011;9503;53.560;10.246;2024-02-26T08:45:46;17.37;;;10.90;;
18748;SDS011;9503;53.560;10.246;2024-02-26T08:48:13;18.37;;;10.90;;
18748;SDS011;9503;53.560;10.246;2024-02-26T08:50:40;18.90;;;10.47;;
18748;SDS011;9503;53.560;10.246;2024-02-26T08:53:07;18.80;;;10.73;;
18748;SDS011;9503;53.560;10.246;2024-02-26T08:55:35;21.53;;;11.00;;
18748;SDS011;9503;53.560;10.246;2024-02-26T08:58:01;19.60;;;10.63;;
18748;SDS011;9503;53.560;10.246;2024-02-26T09:00:28;17.93;;;10.20;;
18748;SDS011;9503;53.560;10.246;2024-02-26T09:02:56;20.03;;;10.83;;
18748;SDS011;9503;53.560;10.246;2024-02-26T09:05:22;20.73;;;10.93;;
18748;SDS011;9503;53.560;10.246;2024-02-26T09:07:49;21.17;;;11.20;;
18748;SDS011;9503;53.560;10.246;2024-02-26T09:10:17;20.50;;;11.07;;
18748;SDS011;9503;53.560;10.246;2024-02-26T09:12:45;20.50;;;11.60;;
18748;SDS011;9503;53.560;10.246;2024-02-26T09:15:11;18.40;;;11.00;;
18748;SDS011;9503;53.560;10.246;2024-02-26T09:17:38;20.93;;;12.27;;
18748;SDS011;9503;53.560;10.246;2024-02-26T09:20:05;19.50;;;10.53;;
18748;SDS011;9503;53.560;10.246;2024-02-26T09:22:34;19.93;;;11.13;;
18748;SDS011;9503;53.560;10.246;2024-02-26T09:25:03;16.63;;;10.03;;
18748;SDS011;9503;53.560;10.246;2024-02-26T09:27:30;16.70;;;9.90;;
18748;SDS011;9503;53.560;10.246;2024-02-26T09:29:58;19.13;;;11.20;;
18748;SDS011;9503;53.560;10.246;2024-02-26T09:32:24;21.23;;;11.93;;
18748;SDS011;9503;53.560;10.246;2024-02-26T09:34:51;19.63;;;11.17;;
18748;SDS011;9503;53.560;10.246;2024-02-26T09:37:18;19.10;;;10.97;;
18748;SDS011;9503;53.560;10.246;2024-02-26T09:39:44;18.23;;;10.73;;
18748;SDS011;9503;53.560;10.246;2024-02-26T09:42:11;19.13;;;11.10;;
18748;SDS011;9503;53.560;10.246;2024-02-26T09:44:40;19.50;;;11.27;;
18748;SDS011;9503;53.560;10.246;2024-02-26T09:47:09;20.47;;;11.60;;
18748;SDS011;9503;53.560;10.246;2024-02-26T09:49:38;19.67;;;11.90;;
18748;SDS011;9503;53.560;10.246;2024-02-26T09:52:05;23.17;;;11.87;;
18748;SDS011;9503;53.560;10.246;2024-02-26T09:54:34;24.20;;;11.27;;
18748;SDS011;9503;53.560;10.246;2024-02-26T09:57:02;24.93;;;12.53;;
18748;SDS011;9503;53.560;10.246;2024-02-26T09:59:31;24.40;;;12.43;;
18748;SDS011;9503;53.560;10.246;2024-02-26T10:02:04;23.53;;;13.43;;
18748;SDS011;9503;53.560;10.246;2024-02-26T10:04:36;26.37;;;14.00;;
18748;SDS011;9503;53.560;10.246;2024-02-26T10:07:03;22.93;;;13.17;;
18748;SDS011;9503;53.560;10.246;2024-02-26T10:09:30;23.37;;;13.10;;
18748;SDS011;9503;53.560;10.246;2024-02-26T10:11:58;28.37;;;14.33;;
18748;SDS011;9503;53.560;10.246;2024-02-26T10:14:25;21.53;;;12.77;;
18748;SDS011;9503;53.560;10.246;2024-02-26T10:16:52;25.50;;;13.60;;
18748;SDS011;9503;53.560;10.246;2024-02-26T10:19:25;25.40;;;13.30;;
18748;SDS011;9503;53.560;10.246;2024-02-26T10:21:55;28.40;;;13.97;;
18748;SDS011;9503;53.560;10.246;2024-02-26T10:24:23;28.57;;;14.07;;
18748;SDS011;9503;53.560;10.246;2024-02-26T10:26:50;26.33;;;13.33;;
18748;SDS011;9503;53.560;10.246;2024-02-26T10:29:18;25.87;;;13.87;;
18748;SDS011;9503;53.560;10.246;2024-02-26T10:31:44;25.57;;;13.60;;
18748;SDS011;9503;53.560;10.246;2024-02-26T10:34:11;27.03;;;14.27;;
18748;SDS011;9503;53.560;10.246;2024-02-26T10:36:38;28.50;;;14.60;;
18748;SDS011;9503;53.560;10.246;2024-02-26T10:39:07;26.83;;;14.13;;
18748;SDS011;9503;53.560;10.246;2024-02-26T10:41:34;31.17;;;13.93;;
18748;SDS011;9503;53.560;10.246;2024-02-26T10:44:01;27.63;;;15.30;;
18748;SDS011;9503;53.560;10.246;2024-02-26T10:46:27;29.10;;;14.50;;
18748;SDS011;9503;53.560;10.246;2024-02-26T10:48:54;28.63;;;13.83;;
18748;SDS011;9503;53.560;10.246;2024-02-26T10:51:27;25.50;;;13.63;;
18748;SDS011;9503;53.560;10.246;2024-02-26T10:53:55;28.87;;;13.27;;
18748;SDS011;9503;53.560;10.246;2024-02-26T10:56:25;26.13;;;12.93;;
18748;SDS011;9503;53.560;10.246;2024-02-26T10:58:54;26.43;;;13.50;;
18748;SDS011;9503;53.560;10.246;2024-02-26T11:01:21;27.57;;;13.17;;
18748;SDS011;9503;53.560;10.246;2024-02-26T11:03:50;25.10;;;12.63;;
18748;SDS011;9503;53.560;10.246;2024-02-26T11:06:18;28.50;;;13.63;;
18748;SDS011;9503;53.560;10.246;2024-02-26T11:08:47;23.07;;;11.80;;
18748;SDS011;9503;53.560;10.246;2024-02-26T11:11:15;25.10;;;12.70;;
18748;SDS011;9503;53.560;10.246;2024-02-26T11:13:43;26.70;;;12.90;;
18748;SDS011;9503;53.560;10.246;2024-02-26T11:16:14;31.67;;;13.50;;
18748;SDS011;9503;53.560;10.246;2024-02-26T11:18:42;27.87;;;13.60;;
18748;SDS011;9503;53.560;10.246;2024-02-26T11:21:10;27.77;;;12.87;;
18748;SDS011;9503;53.560;10.246;2024-02-26T11:23:38;27.30;;;13.00;;
18748;SDS011;9503;53.560;10.246;2024-02-26T11:26:05;27.23;;;12.57;;
18748;SDS011;9503;53.560;10.246;2024-02-26T11:28:33;31.53;;;13.97;;
18748;SDS011;9503;53.560;10.246;2024-02-26T11:31:03;27.67;;;13.70;;
18748;SDS011;9503;53.560;10.246;2024-02-26T11:33:31;29.53;;;14.13;;
18748;SDS011;9503;53.560;10.246;2024-02-26T11:35:58;29.20;;;13.23;;
18748;SDS011;9503;53.560;10.246;2024-02-26T11:38:26;29.87;;;13.97;;
18748;SDS011;9503;53.560;10.246;2024-02-26T11:40:53;26.43;;;12.80;;
18748;SDS011;9503;53.560;10.246;2024-02-26T11:43:22;26.93;;;12.93;;
18748;SDS011;9503;53.560;10.246;2024-02-26T11:45:50;27.97;;;12.67;;
18748;SDS011;9503;53.560;10.246;2024-02-26T11:48:22;25.73;;;12.17;;
18748;SDS011;9503;53.560;10.246;2024-02-26T11:50:51;23.63;;;11.93;;
18748;SDS011;9503;53.560;10.246;2024-02-26T11:53:25;19.43;;;10.43;;
18748;SDS011;9503;53.560;10.246;2024-02-26T11:58:58;20.70;;;10.23;;
18748;SDS011;9503;53.560;10.246;2024-02-26T12:01:41;22.00;;;10.60;;
18748;SDS011;9503;53.560;10.246;2024-02-26T12:04:15;22.33;;;10.40;;
18748;SDS011;9503;53.560;10.246;2024-02-26T12:06:52;17.30;;;8.77;;
18748;SDS011;9503;53.560;10.246;2024-02-26T12:09:31;17.80;;;10.03;;
18748;SDS011;9503;53.560;10.246;2024-02-26T12:12:01;23.87;;;11.50;;
18748;SDS011;9503;53.560;10.246;2024-02-26T12:14:29;23.53;;;12.13;;
18748;SDS011;9503;53.560;10.246;2024-02-26T12:16:56;24.43;;;12.27;;
18748;SDS011;9503;53.560;10.246;2024-02-26T12:19:24;21.57;;;11.90;;
18748;SDS011;9503;53.560;10.246;2024-02-26T12:21:51;30.60;;;12.97;;
18748;SDS011;9503;53.560;10.246;2024-02-26T12:24:20;27.40;;;12.20;;
18748;SDS011;9503;53.560;10.246;2024-02-26T12:26:47;28.10;;;13.10;;
18748;SDS011;9503;53.560;10.246;2024-02-26T12:29:13;25.13;;;12.30;;
18748;SDS011;9503;53.560;10.246;2024-02-26T12:31:40;28.50;;;13.17;;
18748;SDS011;9503;53.560;10.246;2024-02-26T12:34:08;27.57;;;12.17;;
18748;SDS011;9503;53.560;10.246;2024-02-26T12:36:37;27.13;;;12.53;;
18748;SDS011;9503;53.560;10.246;2024-02-26T12:39:05;24.80;;;11.57;;
18748;SDS011;9503;53.560;10.246;2024-02-26T12:41:32;24.97;;;12.17;;
18748;SDS011;9503;53.560;10.246;2024-02-26T12:43:59;25.53;;;12.33;;
18748;SDS011;9503;53.560;10.246;2024-02-26T12:46:26;25.43;;;11.60;;
18748;SDS011;9503;53.560;10.246;2024-02-26T12:48:54;21.63;;;10.73;;
18748;SDS011;9503;53.560;10.246;2024-02-26T12:51:23;22.20;;;11.03;;
18748;SDS011;9503;53.560;10.246;2024-02-26T12:53:51;26.73;;;11.47;;
18748;SDS011;9503;53.560;10.246;2024-02-26T12:56:19;22.67;;;10.50;;
18748;SDS011;9503;53.560;10.246;2024-02-26T12:58:46;19.77;;;10.67;;
18748;SDS011;9503;53.560;10.246;2024-02-26T13:01:14;19.23;;;9.80;;
18748;SDS011;9503;53.560;10.246;2024-02-26T13:03:43;20.07;;;10.00;;
18748;SDS011;9503;53.560;10.246;2024-02-26T13:06:10;17.80;;;9.37;;
18748;SDS011;9503;53.560;10.246;2024-02-26T13:08:37;21.50;;;10.37;;
18748;SDS011;9503;53.560;10.246;2024-02-26T13:11:06;17.67;;;10.00;;
18748;SDS011;9503;53.560;10.246;2024-02-26T13:13:33;23.33;;;10.23;;
18748;SDS011;9503;53.560;10.246;2024-02-26T13:16:03;20.00;;;9.53;;
18748;SDS011;9503;53.560;10.246;2024-02-26T13:18:31;19.77;;;9.43;;
18748;SDS011;9503;53.560;10.246;2024-02-26T13:21:08;19.37;;;9.67;;
18748;SDS011;9503;53.560;10.246;2024-02-26T13:23:35;17.90;;;9.57;;
18748;SDS011;9503;53.560;10.246;2024-02-26T13:26:02;21.57;;;10.90;;
18748;SDS011;9503;53.560;10.246;2024-02-26T13:28:30;19.00;;;10.33;;
18748;SDS011;9503;53.560;10.246;2024-02-26T13:30:58;18.30;;;9.20;;
18748;SDS011;9503;53.560;10.246;2024-02-26T13:33:26;22.17;;;10.43;;
18748;SDS011;9503;53.560;10.246;2024-02-26T13:35:54;20.83;;;11.00;;
18748;SDS011;9503;53.560;10.246;2024-02-26T13:38:21;22.90;;;10.40;;
18748;SDS011;9503;53.560;10.246;2024-02-26T13:40:48;20.30;;;10.90;;
18748;SDS011;9503;53.560;10.246;2024-02-26T13:43:14;20.27;;;10.80;;
18748;SDS011;9503;53.560;10.246;2024-02-26T13:45:42;17.70;;;10.23;;
18748;SDS011;9503;53.560;10.246;2024-02-26T13:48:09;21.97;;;10.90;;
18748;SDS011;9503;53.560;10.246;2024-02-26T13:50:37;19.70;;;10.30;;
18748;SDS011;9503;53.560;10.246;2024-02-26T13:53:04;19.73;;;10.07;;
18748;SDS011;9503;53.560;10.246;2024-02-26T13:55:31;19.83;;;9.93;;
18748;SDS011;9503;53.560;10.246;2024-02-26T13:57:58;19.97;;;11.23;;
18748;SDS011;9503;53.560;10.246;2024-02-26T14:00:26;18.23;;;10.20;;
18748;SDS011;9503;53.560;10.246;2024-02-26T14:02:55;21.10;;;9.83;;
18748;SDS011;9503;53.560;10.246;2024-02-26T14:05:21;19.30;;;10.17;;
18748;SDS011;9503;53.560;10.246;2024-02-26T14:07:48;20.03;;;9.07;;
18748;SDS011;9503;53.560;10.246;2024-02-26T14:10:14;17.37;;;9.47;;
18748;SDS011;9503;53.560;10.246;2024-02-26T14:12:42;18.53;;;9.30;;
18748;SDS011;9503;53.560;10.246;2024-02-26T14:15:09;18.60;;;10.10;;
18748;SDS011;9503;53.560;10.246;2024-02-26T14:17:36;14.60;;;8.70;;
18748;SDS011;9503;53.560;10.246;2024-02-26T14:20:05;19.13;;;9.70;;
18748;SDS011;9503;53.560;10.246;2024-02-26T14:22:32;16.30;;;8.37;;
18748;SDS011;9503;53.560;10.246;2024-02-26T14:24:59;16.80;;;9.33;;
18748;SDS011;9503;53.560;10.246;2024-02-26T14:27:26;17.67;;;9.30;;
18748;SDS011;9503;53.560;10.246;2024-02-26T14:29:52;16.57;;;9.63;;
18748;SDS011;9503;53.560;10.246;2024-02-26T14:32:20;24.17;;;10.67;;
18748;SDS011;9503;53.560;10.246;2024-02-26T14:34:47;17.30;;;9.47;;